Time;durP1;ratioP1;P1;durP2;ratioP2;P2;SDS_P1;SDS_P2;PMS_P1;PMS_P2;Temp;Humidity;BMP_temperature;BMP_pressure;BME280_temperature;BME280_humidity;BME280_pressure;Samples;Min_cycle;Max_cycle;Signal;HPM_P1;HPM_P2
2023/04/01 00:01:17;;;;;;;29.23;17.23;;;7.80;99.90;;;;;;4146963;28;20050;-70
2023/04/01 00:03:18;;;;;;;29.83;17.20;;;7.80;99.90;;;;;;4145276;28;20029;-65
2023/04/01 00:05:19;;;;;;;32.10;18.90;;;7.80;99.90;;;;;;4146122;28;20064;-66
2023/04/01 00:07:21;;;;;;;30.90;17.67;;;7.80;99.90;;;;;;4145232;28;20049;-65
2023/04/01 00:09:22;;;;;;;25.97;16.03;;;7.80;99.90;;;;;;4146035;28;20495;-65
2023/04/01 00:11:23;;;;;;;23.50;15.60;;;7.80;99.90;;;;;;4145558;28;20671;-65
2023/04/01 00:13:26;;;;;;;24.03;15.73;;;7.90;99.90;;;;;;4146987;28;20046;-67
2023/04/01 00:15:27;;;;;;;25.87;16.73;;;7.90;99.90;;;;;;4161642;28;20017;-68
2023/04/01 00:17:28;;;;;;;27.53;15.80;;;7.90;99.90;;;;;;4161913;28;20095;-65
2023/04/01 00:19:29;;;;;;;23.00;14.70;;;7.90;99.90;;;;;;4160238;28;20071;-65
2023/04/01 00:21:31;;;;;;;24.07;14.17;;;7.90;99.90;;;;;;4161337;28;20045;-66
2023/04/01 00:23:33;;;;;;;20.93;14.60;;;8.00;99.90;;;;;;4162151;28;20037;-65
2023/04/01 00:25:34;;;;;;;22.33;15.03;;;8.00;99.90;;;;;;4154548;28;20359;-65
2023/04/01 00:27:35;;;;;;;21.60;14.47;;;8.00;99.90;;;;;;4162101;28;20033;-64
2023/04/01 00:29:36;;;;;;;22.73;13.93;;;8.00;99.90;;;;;;4159410;28;20492;-66
2023/04/01 00:31:37;;;;;;;23.80;15.07;;;8.00;99.90;;;;;;4162048;28;20060;-65
2023/04/01 00:33:40;;;;;;;22.53;14.33;;;8.00;99.90;;;;;;4161274;28;20045;-65
2023/04/01 00:35:41;;;;;;;22.37;15.13;;;8.00;99.90;;;;;;4153734;28;20471;-66
2023/04/01 00:37:42;;;;;;;22.90;15.07;;;8.00;99.90;;;;;;4148090;28;20108;-64
2023/04/01 00:39:44;;;;;;;24.70;14.57;;;8.00;99.90;;;;;;4145679;28;20037;-68
2023/04/01 00:41:45;;;;;;;25.77;14.40;;;8.00;99.90;;;;;;4146955;28;20041;-71
2023/04/01 00:43:49;;;;;;;23.00;14.23;;;8.00;99.90;;;;;;4160930;28;20021;-69
2023/04/01 00:45:50;;;;;;;24.57;14.43;;;8.00;99.90;;;;;;4160862;28;20033;-65
2023/04/01 00:47:51;;;;;;;23.60;15.17;;;8.00;99.90;;;;;;4159996;28;20091;-69
2023/04/01 00:49:54;;;;;;;23.20;14.50;;;8.00;99.90;;;;;;4159485;28;20106;-65
2023/04/01 00:51:58;;;;;;;25.27;14.40;;;8.10;99.90;;;;;;4161717;28;20033;-66
2023/04/01 00:54:03;;;;;;;25.33;15.17;;;8.10;99.90;;;;;;4161621;28;20037;-66
2023/04/01 00:56:19;;;;;;;25.87;15.50;;;8.10;99.90;;;;;;4153994;28;20083;-69
2023/04/01 00:58:23;;;;;;;27.40;16.03;;;8.10;99.90;;;;;;4145028;28;20030;-65
2023/04/01 01:00:26;;;;;;;24.70;15.47;;;8.10;99.90;;;;;;4146003;28;20030;-65
2023/04/01 01:02:27;;;;;;;23.13;15.10;;;8.10;99.90;;;;;;4144964;28;20092;-65
2023/04/01 01:04:31;;;;;;;25.77;15.83;;;8.10;99.90;;;;;;4144615;28;20092;-65
2023/04/01 01:06:54;;;;;;;24.27;14.30;;;8.10;99.90;;;;;;4143313;28;20080;-65
2023/04/01 01:09:16;;;;;;;21.43;14.13;;;8.20;99.90;;;;;;4160181;28;21413;-68
2023/04/01 01:11:26;;;;;;;24.03;15.17;;;8.20;99.90;;;;;;4160750;28;20038;-67
2023/04/01 01:13:39;;;;;;;26.17;15.30;;;8.20;99.90;;;;;;4159342;28;20446;-65
2023/04/01 01:16:08;;;;;;;23.27;15.13;;;8.20;99.90;;;;;;4160263;28;20092;-71
2023/04/01 01:18:21;;;;;;;22.97;14.07;;;8.20;99.90;;;;;;4161071;28;20034;-66
2023/04/01 01:20:54;;;;;;;21.90;13.97;;;8.20;99.90;;;;;;4150585;28;20038;-65
2023/04/01 01:23:27;;;;;;;19.13;12.77;;;8.30;99.90;;;;;;4161746;28;20080;-67
2023/04/01 01:25:55;;;;;;;25.70;14.00;;;8.30;99.90;;;;;;4160471;28;20080;-65
2023/04/01 01:28:04;;;;;;;23.97;14.80;;;8.30;99.90;;;;;;4160654;28;20026;-64
2023/04/01 01:30:25;;;;;;;21.73;15.03;;;8.30;99.90;;;;;;4160326;28;20083;-65
2023/04/01 01:32:51;;;;;;;24.73;15.03;;;8.30;99.90;;;;;;4160486;28;20045;-65
2023/04/01 01:35:13;;;;;;;24.00;15.57;;;8.30;99.90;;;;;;4160450;28;20029;-64
2023/04/01 01:37:17;;;;;;;23.07;13.77;;;8.40;99.90;;;;;;4146413;28;20049;-65
2023/04/01 01:39:20;;;;;;;22.83;14.53;;;8.40;99.90;;;;;;4153561;28;20045;-65
2023/04/01 01:41:23;;;;;;;19.33;13.97;;;8.30;99.90;;;;;;4149433;28;20038;-64
2023/04/01 01:43:29;;;;;;;21.10;13.63;;;8.30;99.90;;;;;;4143974;28;20856;-65
2023/04/01 01:45:34;;;;;;;21.37;14.00;;;8.40;99.90;;;;;;4144447;28;20037;-65
2023/04/01 01:47:36;;;;;;;27.67;15.97;;;8.40;99.90;;;;;;4143952;28;20034;-64
2023/04/01 01:49:40;;;;;;;23.90;15.00;;;8.40;99.90;;;;;;4148549;28;20041;-66
2023/04/01 01:51:42;;;;;;;24.50;15.83;;;8.30;99.90;;;;;;4159940;28;20025;-67
2023/04/01 01:53:44;;;;;;;22.60;14.17;;;8.30;99.90;;;;;;4161446;28;20174;-65
2023/04/01 01:55:47;;;;;;;24.50;15.90;;;8.40;99.90;;;;;;4159580;28;20547;-67
2023/04/01 01:57:48;;;;;;;21.07;14.70;;;8.40;99.90;;;;;;4160950;28;20025;-69
2023/04/01 01:59:51;;;;;;;23.30;15.90;;;8.40;99.90;;;;;;4157919;28;20045;-64
2023/04/01 02:01:56;;;;;;;23.10;15.30;;;8.40;99.90;;;;;;4139024;28;20444;-64
2023/04/01 02:03:58;;;;;;;18.37;13.27;;;8.40;99.90;;;;;;4160003;28;20018;-65
2023/04/01 02:06:02;;;;;;;18.50;12.73;;;8.40;99.90;;;;;;4160064;28;20046;-65
2023/04/01 02:08:36;;;;;;;21.33;13.73;;;8.40;99.90;;;;;;4159971;28;20045;-65
2023/04/01 02:10:42;;;;;;;21.87;14.37;;;8.40;99.90;;;;;;4143482;28;20029;-65
2023/04/01 02:12:46;;;;;;;20.10;13.07;;;8.40;99.90;;;;;;4159756;28;20091;-66
2023/04/01 02:15:05;;;;;;;36.87;21.23;;;8.40;99.90;;;;;;4160533;28;20084;-65
2023/04/01 02:17:19;;;;;;;30.50;19.47;;;8.30;99.90;;;;;;4159884;28;20029;-67
2023/04/01 02:19:23;;;;;;;23.83;14.47;;;8.30;99.90;;;;;;4160304;28;20152;-65
2023/04/01 02:21:29;;;;;;;22.40;15.13;;;8.30;99.90;;;;;;4159587;28;20401;-67
2023/04/01 02:23:34;;;;;;;23.80;14.73;;;8.30;99.90;;;;;;4160618;28;20099;-65
2023/04/01 02:25:37;;;;;;;22.33;14.10;;;8.30;99.90;;;;;;4159746;28;20029;-69
2023/04/01 02:27:40;;;;;;;24.13;15.57;;;8.30;99.90;;;;;;4160336;28;20076;-65
2023/04/01 02:29:41;;;;;;;21.63;15.10;;;8.30;99.90;;;;;;4159864;28;20571;-65
2023/04/01 02:31:42;;;;;;;21.53;15.00;;;8.30;99.90;;;;;;4160265;28;20967;-69
2023/04/01 02:33:44;;;;;;;23.67;14.87;;;8.30;99.90;;;;;;4158330;28;20126;-65
2023/04/01 02:35:46;;;;;;;18.70;13.57;;;8.40;99.90;;;;;;4159827;28;20038;-66
2023/04/01 02:37:50;;;;;;;16.30;11.60;;;8.30;99.90;;;;;;4159999;28;20042;-65
2023/04/01 02:39:51;;;;;;;18.67;12.53;;;8.40;99.90;;;;;;4162951;28;20091;-68
2023/04/01 02:41:53;;;;;;;20.67;13.97;;;8.30;99.90;;;;;;4159776;28;20033;-71
2023/04/01 02:43:54;;;;;;;19.97;14.63;;;8.30;99.90;;;;;;4159810;28;20087;-71
2023/04/01 02:45:56;;;;;;;20.67;14.10;;;8.30;99.90;;;;;;4163242;28;20108;-66
2023/04/01 02:47:57;;;;;;;24.33;15.03;;;8.30;99.90;;;;;;4154619;28;20038;-68
2023/04/01 02:49:58;;;;;;;24.30;14.47;;;8.20;99.90;;;;;;4160179;28;20088;-71
2023/04/01 02:51:59;;;;;;;22.90;14.87;;;8.10;99.90;;;;;;4148171;28;20038;-72
2023/04/01 02:54:01;;;;;;;24.13;14.93;;;8.10;99.90;;;;;;4146493;28;20514;-69
2023/04/01 02:56:02;;;;;;;23.43;15.13;;;8.10;99.90;;;;;;4146424;28;20140;-68
2023/04/01 02:58:03;;;;;;;23.70;14.37;;;8.00;99.90;;;;;;4147263;28;20077;-68
2023/04/01 03:00:10;;;;;;;22.87;14.27;;;8.00;99.90;;;;;;4145792;28;20041;-68
2023/04/01 03:02:12;;;;;;;21.90;14.00;;;8.00;99.90;;;;;;4147190;28;20443;-68
2023/04/01 03:04:13;;;;;;;21.93;14.03;;;8.00;99.90;;;;;;4146594;28;20080;-65
2023/04/01 03:06:16;;;;;;;22.37;14.60;;;8.00;99.90;;;;;;4146691;28;20076;-66
2023/04/01 03:08:17;;;;;;;22.60;14.77;;;8.00;99.90;;;;;;4146482;28;20053;-69
2023/04/01 03:10:18;;;;;;;20.17;14.33;;;7.90;99.90;;;;;;4146633;28;20084;-71
2023/04/01 03:12:20;;;;;;;18.40;12.77;;;7.90;99.90;;;;;;4145310;28;20030;-65
2023/04/01 03:14:21;;;;;;;22.97;14.10;;;7.90;99.90;;;;;;4146344;28;20442;-65
2023/04/01 03:16:23;;;;;;;20.90;13.57;;;7.90;99.90;;;;;;4146761;28;20084;-64
2023/04/01 03:18:24;;;;;;;18.93;12.97;;;7.90;99.90;;;;;;4156165;28;20090;-65
2023/04/01 03:20:25;;;;;;;19.93;13.57;;;7.90;99.90;;;;;;4162725;28;20072;-65
2023/04/01 03:22:26;;;;;;;18.60;13.70;;;7.90;99.90;;;;;;4153689;28;20050;-65
2023/04/01 03:24:27;;;;;;;19.57;13.90;;;7.80;99.90;;;;;;4162941;28;20034;-65
2023/04/01 03:26:29;;;;;;;23.63;14.40;;;7.80;99.90;;;;;;4162437;28;20076;-66
2023/04/01 03:28:30;;;;;;;21.63;14.03;;;7.80;99.90;;;;;;4153100;28;20042;-66
2023/04/01 03:30:31;;;;;;;26.70;14.47;;;7.70;99.90;;;;;;4145756;28;20092;-65
2023/04/01 03:32:32;;;;;;;21.70;14.10;;;7.70;99.90;;;;;;4149244;28;20038;-66
2023/04/01 03:34:33;;;;;;;27.73;15.30;;;7.70;99.90;;;;;;4162107;28;20046;-70
2023/04/01 03:36:34;;;;;;;21.47;14.70;;;7.60;99.90;;;;;;4162285;28;20437;-65
2023/04/01 03:38:36;;;;;;;23.80;15.63;;;7.60;99.90;;;;;;4162223;28;20168;-64
2023/04/01 03:40:38;;;;;;;22.33;15.30;;;7.60;99.90;;;;;;4162567;28;20473;-65
2023/04/01 03:42:39;;;;;;;23.93;14.87;;;7.60;99.90;;;;;;4160926;28;20465;-66
2023/04/01 03:44:40;;;;;;;26.87;16.27;;;7.60;99.90;;;;;;4156145;28;20478;-65
2023/04/01 03:46:41;;;;;;;24.67;15.80;;;7.50;99.90;;;;;;4151786;28;20030;-65
2023/04/01 03:48:42;;;;;;;29.10;16.57;;;7.50;99.90;;;;;;4160679;28;20049;-69
2023/04/01 03:50:44;;;;;;;28.43;16.60;;;7.50;99.90;;;;;;4160233;28;20080;-66
2023/04/01 03:52:45;;;;;;;27.07;16.00;;;7.50;99.90;;;;;;4162267;28;20080;-65
2023/04/01 03:54:46;;;;;;;27.57;16.60;;;7.50;99.90;;;;;;4162723;28;21484;-65
2023/04/01 03:56:48;;;;;;;27.80;16.77;;;7.50;99.90;;;;;;4149081;28;20149;-66
2023/04/01 03:58:49;;;;;;;27.27;15.93;;;7.50;99.90;;;;;;4146395;28;20063;-66
2023/04/01 04:00:50;;;;;;;24.93;17.10;;;7.50;99.90;;;;;;4146520;28;20478;-65
2023/04/01 04:02:51;;;;;;;25.70;16.03;;;7.50;99.90;;;;;;4146248;28;20088;-65
2023/04/01 04:04:52;;;;;;;26.10;16.33;;;7.50;99.90;;;;;;4145355;28;20042;-65
2023/04/01 04:06:54;;;;;;;26.07;16.87;;;7.50;99.90;;;;;;4145908;28;20068;-65
2023/04/01 04:08:55;;;;;;;32.47;17.50;;;7.50;99.90;;;;;;4145675;28;20467;-66
2023/04/01 04:10:56;;;;;;;29.47;16.67;;;7.50;99.90;;;;;;4145621;28;20025;-65
2023/04/01 04:12:57;;;;;;;25.43;16.30;;;7.40;99.90;;;;;;4151835;28;20029;-65
2023/04/01 04:14:59;;;;;;;28.60;17.33;;;7.50;99.90;;;;;;4148493;28;20038;-65
2023/04/01 04:17:00;;;;;;;27.40;16.77;;;7.40;99.90;;;;;;4146560;28;20581;-65
2023/04/01 04:19:01;;;;;;;27.70;17.03;;;7.40;99.90;;;;;;4161565;28;20025;-64
2023/04/01 04:21:03;;;;;;;28.97;17.00;;;7.40;99.90;;;;;;4157390;28;20481;-64
2023/04/01 04:23:04;;;;;;;28.40;17.50;;;7.40;99.90;;;;;;4148658;28;20096;-65
2023/04/01 04:25:06;;;;;;;37.33;17.93;;;7.40;99.90;;;;;;4146603;28;20103;-66
2023/04/01 04:27:07;;;;;;;27.40;17.50;;;7.30;99.90;;;;;;4146279;28;20506;-65
2023/04/01 04:29:08;;;;;;;28.90;17.97;;;7.30;99.90;;;;;;4145518;28;20041;-65
2023/04/01 04:31:10;;;;;;;32.17;17.93;;;7.30;99.90;;;;;;4144997;28;20022;-65
2023/04/01 04:33:11;;;;;;;30.77;17.83;;;7.30;99.90;;;;;;4147623;28;20022;-65
2023/04/01 04:35:12;;;;;;;30.43;18.53;;;7.30;99.90;;;;;;4142130;28;20115;-65
2023/04/01 04:37:13;;;;;;;35.17;20.57;;;7.30;99.90;;;;;;4157418;28;20076;-67
2023/04/01 04:39:15;;;;;;;42.87;22.70;;;7.30;99.90;;;;;;4150663;28;20102;-67
2023/04/01 04:41:18;;;;;;;39.60;22.30;;;7.30;99.90;;;;;;4132799;28;20083;-68
2023/04/01 04:43:19;;;;;;;35.23;21.70;;;7.30;99.90;;;;;;4145259;28;20030;-66
2023/04/01 04:45:20;;;;;;;36.50;22.27;;;7.30;99.90;;;;;;4144898;28;20104;-66
2023/04/01 04:47:21;;;;;;;38.30;22.43;;;7.40;99.90;;;;;;4144293;28;20084;-66
2023/04/01 04:49:23;;;;;;;32.70;21.63;;;7.40;99.90;;;;;;4144223;28;20045;-67
2023/04/01 04:51:24;;;;;;;38.47;23.47;;;7.40;99.90;;;;;;4145401;28;20084;-66
2023/04/01 04:53:25;;;;;;;53.20;32.10;;;7.40;99.90;;;;;;4157269;28;20123;-67
2023/04/01 04:55:27;;;;;;;50.73;29.90;;;7.40;99.90;;;;;;4161207;28;20065;-67
2023/04/01 04:57:28;;;;;;;60.83;35.10;;;7.40;99.90;;;;;;4160233;28;20103;-66
2023/04/01 04:59:30;;;;;;;49.80;31.33;;;7.40;99.90;;;;;;4158007;28;20030;-66
2023/04/01 05:01:33;;;;;;;37.83;23.60;;;7.40;99.90;;;;;;4143748;28;21086;-65
2023/04/01 05:03:34;;;;;;;33.10;20.37;;;7.40;99.90;;;;;;4146258;28;20033;-67
2023/04/01 05:05:37;;;;;;;27.83;19.13;;;7.40;99.90;;;;;;4142279;28;20054;-67
2023/04/01 05:07:39;;;;;;;30.53;19.47;;;7.40;99.90;;;;;;4149058;28;20050;-66
2023/04/01 05:09:41;;;;;;;28.17;18.10;;;7.50;99.90;;;;;;4153796;28;20072;-68
2023/04/01 05:11:42;;;;;;;30.90;19.20;;;7.40;99.90;;;;;;4157146;28;20442;-66
2023/04/01 05:13:44;;;;;;;29.33;19.07;;;7.40;99.90;;;;;;4144731;28;20494;-66
2023/04/01 05:15:45;;;;;;;29.80;19.07;;;7.50;99.90;;;;;;4144836;28;20096;-66
2023/04/01 05:17:46;;;;;;;29.17;18.27;;;7.40;99.90;;;;;;4145513;28;20053;-65
2023/04/01 05:19:48;;;;;;;28.43;18.80;;;7.40;99.90;;;;;;4145488;28;20144;-66
2023/04/01 05:21:49;;;;;;;27.10;18.07;;;7.40;99.90;;;;;;4144597;28;20045;-64
2023/04/01 05:23:51;;;;;;;28.67;18.90;;;7.40;99.90;;;;;;4149720;28;20659;-65
2023/04/01 05:25:52;;;;;;;29.63;19.47;;;7.50;99.90;;;;;;4151754;28;20046;-64
2023/04/01 05:27:54;;;;;;;40.30;25.47;;;7.50;99.90;;;;;;4146555;28;20091;-65
2023/04/01 05:29:55;;;;;;;30.93;18.83;;;7.50;99.90;;;;;;4144882;28;20486;-66
2023/04/01 05:31:56;;;;;;;34.17;19.97;;;7.50;99.90;;;;;;4143851;28;20450;-71
2023/04/01 05:33:58;;;;;;;34.57;20.33;;;7.50;99.90;;;;;;4154117;28;20041;-63
2023/04/01 05:36:10;;;;;;;32.57;19.07;;;7.60;99.90;;;;;;4159086;28;20045;-70
2023/04/01 05:38:11;;;;;;;34.17;20.50;;;7.60;99.90;;;;;;4160441;28;20037;-75
2023/04/01 05:40:12;;;;;;;33.07;21.10;;;7.60;99.90;;;;;;4152373;28;20457;-73
2023/04/01 05:42:15;;;;;;;34.70;21.77;;;7.60;99.90;;;;;;4144750;28;20111;-76
2023/04/01 05:44:17;;;;;;;36.20;23.00;;;7.60;99.90;;;;;;4143616;28;20030;-65
2023/04/01 05:46:18;;;;;;;38.13;22.50;;;7.70;99.90;;;;;;4142930;28;20026;-71
2023/04/01 05:48:19;;;;;;;35.03;20.90;;;7.70;99.90;;;;;;4143879;28;20084;-76
2023/04/01 05:50:20;;;;;;;34.70;21.13;;;7.70;99.90;;;;;;4144012;28;20104;-65
2023/04/01 05:52:22;;;;;;;33.27;20.00;;;7.70;99.90;;;;;;4144123;28;20549;-65
2023/04/01 05:54:23;;;;;;;36.17;21.50;;;7.70;99.90;;;;;;4144638;28;20045;-66
2023/04/01 05:56:24;;;;;;;38.00;22.63;;;7.70;99.90;;;;;;4143673;28;20509;-64
2023/04/01 05:58:25;;;;;;;36.13;22.23;;;7.80;99.90;;;;;;4143130;28;20046;-65
2023/04/01 06:00:26;;;;;;;32.30;20.17;;;7.90;99.90;;;;;;4155653;28;20030;-66
2023/04/01 06:02:28;;;;;;;37.53;20.87;;;7.80;99.90;;;;;;4159538;28;20037;-63
2023/04/01 06:04:36;;;;;;;39.40;22.17;;;7.80;99.90;;;;;;4151702;28;20096;-70
2023/04/01 06:06:39;;;;;;;41.57;23.10;;;7.80;99.90;;;;;;4157439;28;20022;-66
2023/04/01 06:08:41;;;;;;;38.83;22.63;;;7.90;99.90;;;;;;4160424;28;20103;-72
2023/04/01 06:11:03;;;;;;;37.47;23.13;;;7.90;99.90;;;;;;4159670;28;20026;-64
2023/04/01 06:13:18;;;;;;;33.20;20.87;;;7.90;99.90;;;;;;4158275;28;20037;-66
2023/04/01 06:15:33;;;;;;;33.87;19.73;;;7.90;99.90;;;;;;4150039;28;20646;-66
2023/04/01 06:17:54;;;;;;;29.97;18.07;;;7.90;99.90;;;;;;4144605;28;20096;-67
2023/04/01 06:20:24;;;;;;;28.20;18.20;;;7.90;99.90;;;;;;4159616;28;20424;-71
2023/04/01 06:22:56;;;;;;;27.90;17.98;;;7.90;99.90;;;;;;4117012;28;20083;-65
2023/04/01 06:25:21;;;;;;;30.77;20.00;;;7.90;99.90;;;;;;4160094;28;20029;-72
2023/04/01 06:27:48;;;;;;;32.50;20.47;;;7.90;99.90;;;;;;4142892;28;20103;-65
2023/04/01 06:30:34;;;;;;;27.97;18.27;;;7.90;99.90;;;;;;4127970;28;20080;-64
2023/04/01 06:33:07;;;;;;;27.70;18.80;;;7.90;99.90;;;;;;4111211;28;20375;-64
2023/04/01 06:35:31;;;;;;;22.97;16.00;;;8.00;99.90;;;;;;4151576;28;20405;-62
2023/04/01 06:37:41;;;;;;;25.50;15.70;;;7.90;99.90;;;;;;4143063;28;20033;-62
2023/04/01 06:39:42;;;;;;;27.77;17.00;;;7.90;99.90;;;;;;4143742;28;20431;-65
2023/04/01 06:42:08;;;;;;;27.00;17.00;;;7.90;99.90;;;;;;4143301;28;20030;-62
2023/04/01 06:44:30;;;;;;;23.03;16.13;;;7.90;99.90;;;;;;4143708;28;20484;-66
2023/04/01 06:46:40;;;;;;;25.07;16.30;;;8.00;99.90;;;;;;4157882;28;20084;-63
2023/04/01 06:48:44;;;;;;;27.15;16.90;;;8.00;99.90;;;;;;4157494;28;20080;-68
2023/04/01 06:51:03;;;;;;;25.93;16.87;;;8.00;99.90;;;;;;4155196;28;20096;-61
2023/04/01 06:53:04;;;;;;;24.10;15.67;;;8.00;99.90;;;;;;4152037;28;20083;-63
2023/04/01 06:55:49;;;;;;;23.90;14.67;;;8.00;99.90;;;;;;4146315;28;20665;-61
2023/04/01 06:57:54;;;;;;;23.77;15.00;;;8.00;99.90;;;;;;4150496;28;20088;-63
2023/04/01 06:59:58;;;;;;;24.03;15.73;;;8.10;99.90;;;;;;4143966;28;20089;-61
2023/04/01 07:02:09;;;;;;;23.63;16.40;;;8.10;99.90;;;;;;4147512;28;20075;-62
2023/04/01 07:04:23;;;;;;;24.53;15.33;;;8.20;99.90;;;;;;4143532;28;20076;-64
2023/04/01 07:06:31;;;;;;;26.10;17.73;;;8.30;99.90;;;;;;4142148;28;20092;-63
2023/04/01 07:08:37;;;;;;;26.27;16.47;;;8.30;99.90;;;;;;4142745;28;20042;-63
2023/04/01 07:10:50;;;;;;;23.73;15.87;;;8.30;99.90;;;;;;4143096;28;20073;-64
2023/04/01 07:12:58;;;;;;;26.93;16.23;;;8.40;99.90;;;;;;4143288;28;20438;-63
2023/04/01 07:15:12;;;;;;;24.93;15.67;;;8.40;99.90;;;;;;4141831;28;20038;-63
2023/04/01 07:17:20;;;;;;;26.00;17.23;;;8.40;99.90;;;;;;4142737;28;20101;-63
2023/04/01 07:19:32;;;;;;;26.43;15.80;;;8.40;99.90;;;;;;4142911;28;20025;-64
2023/04/01 07:21:43;;;;;;;24.10;15.07;;;8.40;99.90;;;;;;4141026;28;20046;-63
2023/04/01 07:23:45;;;;;;;;;;;8.40;99.90;;;;;;4143735;28;20029;-64
2023/04/01 07:25:51;;;;;;;23.43;15.47;;;8.40;99.90;;;;;;4144321;28;20435;-67
2023/04/01 07:27:58;;;;;;;22.50;15.33;;;8.40;99.90;;;;;;4145969;28;20033;-62
2023/04/01 07:30:01;;;;;;;25.90;16.83;;;8.50;99.90;;;;;;4149588;28;20064;-63
2023/04/01 07:32:02;;;;;;;26.20;15.20;;;8.50;99.90;;;;;;4145027;28;20041;-63
2023/04/01 07:34:06;;;;;;;25.87;16.80;;;8.50;99.90;;;;;;4144161;28;20042;-63
2023/04/01 07:36:44;;;;;;;24.23;16.50;;;8.50;99.90;;;;;;4150227;28;20109;-63
2023/04/01 07:38:48;;;;;;;23.33;15.23;;;8.50;99.90;;;;;;4124421;28;20050;-63
2023/04/01 07:41:02;;;;;;;23.53;15.57;;;8.50;99.90;;;;;;4129768;28;20042;-68
2023/04/01 07:43:14;;;;;;;21.27;14.70;;;8.50;99.90;;;;;;4145368;28;20046;-62
2023/04/01 07:45:30;;;;;;;24.40;16.17;;;8.50;99.90;;;;;;4145309;28;20106;-62
2023/04/01 07:47:40;;;;;;;25.43;17.10;;;8.50;99.90;;;;;;4145488;28;20080;-71
2023/04/01 07:50:18;;;;;;;21.85;14.60;;;8.50;99.90;;;;;;4147674;28;20641;-62
2023/04/01 07:52:39;;;;;;;20.80;14.47;;;8.50;99.90;;;;;;4160781;28;20103;-68
2023/04/01 07:54:56;;;;;;;28.60;16.57;;;8.50;99.90;;;;;;4159516;28;20107;-64
2023/04/01 07:57:03;;;;;;;24.07;15.50;;;8.50;99.90;;;;;;4162809;28;20363;-63
2023/04/01 07:59:11;;;;;;;24.87;15.17;;;8.50;99.90;;;;;;4159408;28;20041;-63
2023/04/01 08:01:35;;;;;;;21.40;14.33;;;8.50;99.90;;;;;;4155157;28;20052;-65
2023/04/01 08:03:45;;;;;;;24.00;15.20;;;8.60;99.90;;;;;;4161825;28;20497;-65
2023/04/01 08:05:52;;;;;;;;;;;8.70;99.90;;;;;;4149856;28;20029;-64
2023/04/01 08:08:13;;;;;;;24.87;16.37;;;8.70;99.90;;;;;;4145065;28;19993;-62
2023/04/01 08:10:46;;;;;;;26.08;16.73;;;8.70;99.90;;;;;;4160467;28;20088;-64
2023/04/01 08:13:22;;;;;;;27.63;16.97;;;8.80;99.90;;;;;;4157785;28;20030;-64
2023/04/01 08:15:49;;;;;;;27.47;18.40;;;8.90;99.90;;;;;;4093208;29;20111;-64
2023/04/01 08:18:02;;;;;;;27.20;16.83;;;9.00;99.90;;;;;;4136091;28;20038;-66
2023/04/01 08:20:32;;;;;;;32.63;21.40;;;9.00;99.90;;;;;;4144938;28;20046;-64
2023/04/01 08:22:48;;;;;;;27.77;18.42;;;9.10;99.90;;;;;;4145444;28;20042;-63
2023/04/01 08:24:51;;;;;;;27.80;17.23;;;9.10;99.90;;;;;;4144924;28;20030;-66
2023/04/01 08:26:57;;;;;;;22.87;15.50;;;9.10;99.90;;;;;;4145488;28;20483;-70
2023/04/01 08:29:07;;;;;;;24.37;17.03;;;9.20;99.90;;;;;;4147615;28;20078;-63
2023/04/01 08:31:18;;;;;;;23.17;16.63;;;9.30;99.90;;;;;;4144867;28;20030;-63
2023/04/01 08:33:27;;;;;;;23.23;16.23;;;9.30;99.90;;;;;;4144832;28;20080;-70
2023/04/01 08:35:37;;;;;;;22.20;15.23;;;9.30;99.90;;;;;;4145291;28;20034;-65
2023/04/01 08:37:39;;;;;;;;;;;9.40;99.90;;;;;;4145031;28;20029;-65
2023/04/01 08:39:47;;;;;;;22.67;15.17;;;9.50;99.90;;;;;;4145201;28;19910;-65
2023/04/01 08:42:09;;;;;;;23.40;16.13;;;9.60;99.90;;;;;;4144520;28;20092;-64
2023/04/01 08:44:47;;;;;;;20.60;14.53;;;9.70;99.90;;;;;;4145079;28;20100;-65
2023/04/01 08:47:04;;;;;;;19.57;13.90;;;9.70;99.90;;;;;;4147521;28;20383;-62
2023/04/01 08:49:41;;;;;;;20.27;14.30;;;9.70;99.90;;;;;;4135599;28;20080;-72
2023/04/01 08:52:18;;;;;;;21.27;13.60;;;9.80;99.90;;;;;;4144152;28;20030;-63
2023/04/01 08:54:44;;;;;;;20.87;14.47;;;10.10;99.90;;;;;;4144575;28;20084;-64
2023/04/01 08:57:11;;;;;;;18.97;13.23;;;10.40;99.90;;;;;;4144524;28;20429;-64
2023/04/01 08:59:32;;;;;;;19.87;13.33;;;10.70;99.90;;;;;;4144132;28;20598;-67
2023/04/01 09:01:57;;;;;;;20.73;14.00;;;10.80;99.90;;;;;;4145218;28;20077;-63
2023/04/01 09:04:06;;;;;;;26.77;17.53;;;10.90;99.90;;;;;;4144239;28;20065;-70
2023/04/01 09:06:26;;;;;;;24.83;16.93;;;10.80;99.90;;;;;;4144898;28;20080;-65
2023/04/01 09:08:32;;;;;;;20.05;15.60;;;10.90;99.90;;;;;;4143641;28;20292;-69
2023/04/01 09:10:47;;;;;;;21.77;15.37;;;11.00;99.90;;;;;;4145075;28;20034;-69
2023/04/01 09:13:42;;;;;;;20.90;14.50;;;11.10;99.90;;;;;;4143937;28;20104;-67
2023/04/01 09:16:12;;;;;;;20.07;13.90;;;11.30;99.90;;;;;;4078374;29;20032;-67
2023/04/01 09:18:35;;;;;;;18.52;12.93;;;11.50;99.90;;;;;;4075865;29;20077;-68
2023/04/01 09:21:11;;;;;;;20.60;14.27;;;11.60;99.90;;;;;;4143743;28;20068;-64
2023/04/01 09:23:35;;;;;;;19.17;13.37;;;11.60;99.90;;;;;;4144950;28;20461;-69
2023/04/01 09:26:04;;;;;;;16.40;12.50;;;11.60;99.90;;;;;;4143322;28;20100;-63
2023/04/01 09:28:30;;;;;;;16.43;12.07;;;11.40;99.90;;;;;;4144647;28;20034;-63
2023/04/01 09:30:32;;;;;;;19.13;13.07;;;11.30;99.90;;;;;;4143883;28;20565;-63
2023/04/01 09:33:18;;;;;;;15.47;12.57;;;11.30;99.90;;;;;;4143840;28;20054;-63
2023/04/01 09:35:38;;;;;;;16.77;12.37;;;11.40;99.90;;;;;;4077799;29;20040;-63
2023/04/01 09:37:53;;;;;;;16.85;12.60;;;11.50;99.90;;;;;;4061845;29;20092;-65
2023/04/01 09:40:18;;;;;;;17.10;12.50;;;11.40;99.90;;;;;;4091447;28;20060;-67
2023/04/01 09:42:40;;;;;;;16.57;12.03;;;11.40;99.90;;;;;;4127306;28;20537;-66
2023/04/01 09:45:07;;;;;;;18.43;12.90;;;11.70;99.90;;;;;;4128280;28;20038;-70
2023/04/01 09:47:27;;;;;;;20.70;13.93;;;11.90;99.90;;;;;;4127005;28;20084;-68
2023/04/01 09:49:59;;;;;;;18.25;13.35;;;12.00;99.90;;;;;;4127558;28;20089;-66
2023/04/01 09:52:28;;;;;;;18.27;13.13;;;11.90;99.90;;;;;;4136497;28;20049;-64
2023/04/01 09:54:57;;;;;;;15.73;11.70;;;11.80;99.90;;;;;;4143338;28;20053;-65
2023/04/01 09:57:22;;;;;;;15.80;11.23;;;11.80;99.90;;;;;;4142957;28;20037;-69
2023/04/01 09:59:51;;;;;;;18.17;11.90;;;11.80;99.90;;;;;;4143228;28;20057;-64
2023/04/01 10:02:19;;;;;;;15.37;11.67;;;11.90;99.90;;;;;;4143727;28;20372;-65
2023/04/01 10:04:57;;;;;;;17.10;11.50;;;12.00;99.90;;;;;;4142097;28;20568;-69
2023/04/01 10:07:42;;;;;;;15.60;10.87;;;12.10;99.90;;;;;;4143506;28;20457;-70
2023/04/01 10:10:20;;;;;;;14.90;10.80;;;12.10;99.90;;;;;;4143420;28;20026;-66
2023/04/01 10:12:46;;;;;;;11.93;9.33;;;11.90;99.90;;;;;;4143187;28;20068;-65
2023/04/01 10:15:28;;;;;;;14.47;10.77;;;11.70;99.90;;;;;;4143351;28;20572;-64
2023/04/01 10:17:52;;;;;;;15.73;11.30;;;11.50;99.90;;;;;;4114175;28;20478;-65
2023/04/01 10:20:22;;;;;;;14.13;10.53;;;11.40;99.90;;;;;;4154909;28;20876;-67
2023/04/01 10:22:41;;;;;;;12.10;9.27;;;11.40;99.90;;;;;;4127118;28;20050;-63
2023/04/01 10:25:03;;;;;;;23.03;10.23;;;11.40;99.90;;;;;;4127556;28;20092;-67
2023/04/01 10:27:24;;;;;;;20.37;13.10;;;11.40;99.90;;;;;;4127022;28;20372;-62
2023/04/01 10:29:28;;;;;;;19.90;12.23;;;11.40;99.90;;;;;;4126984;28;20026;-63
2023/04/01 10:31:58;;;;;;;15.40;9.33;;;11.40;99.90;;;;;;4127099;28;20471;-63
2023/04/01 10:34:02;;;;;;;11.90;8.13;;;11.50;99.90;;;;;;4133166;28;20046;-67
2023/04/01 10:36:22;;;;;;;10.33;6.67;;;11.50;99.90;;;;;;4142728;28;20097;-64
2023/04/01 10:38:48;;;;;;;6.27;4.30;;;11.50;99.90;;;;;;4143046;28;20084;-62
2023/04/01 10:41:09;;;;;;;4.37;3.43;;;11.40;99.90;;;;;;4152366;28;20501;-63
2023/04/01 10:43:52;;;;;;;3.90;3.50;;;11.40;99.90;;;;;;4159688;28;20034;-66
2023/04/01 10:46:30;;;;;;;5.40;4.27;;;11.30;99.90;;;;;;4103582;28;20050;-72
2023/04/01 10:49:00;;;;;;;6.93;4.30;;;11.30;99.90;;;;;;4148674;28;20036;-65
2023/04/01 10:51:05;;;;;;;6.50;5.18;;;11.20;99.90;;;;;;4141434;28;20177;-63
2023/04/01 10:53:25;;;;;;;5.53;4.07;;;11.20;99.90;;;;;;4142761;28;20725;-66
2023/04/01 10:55:43;;;;;;;5.57;3.47;;;11.20;99.90;;;;;;4141601;28;20046;-67
2023/04/01 10:57:53;;;;;;;6.17;3.90;;;11.20;99.90;;;;;;4141473;28;20108;-62
2023/04/01 11:00:04;;;;;;;8.52;4.70;;;11.20;99.90;;;;;;4142720;28;20391;-63
2023/04/01 11:02:27;;;;;;;5.10;4.57;;;11.30;99.90;;;;;;4146662;28;20057;-66
2023/04/01 11:05:20;;;;;;;6.40;5.67;;;11.40;99.90;;;;;;4146655;28;20088;-62
2023/04/01 11:07:39;;;;;;;6.80;3.93;;;11.40;99.90;;;;;;4125583;28;20459;-66
2023/04/01 11:09:59;;;;;;;4.27;3.87;;;11.40;99.90;;;;;;4145723;28;20042;-63
2023/04/01 11:12:06;;;;;;;8.18;4.50;;;11.30;99.90;;;;;;4146602;28;20115;-68